Terminal Aerodrome Forecast
Issued by NWS Albuquerque, NM

Home | Current Version | Previous Version | Text Only | Print | Product List | Glossary On
Versions: 1 2 3 4 5 6 7 8 9 10 11 12 13 14 15
000
FTUS45 KABQ 171700
TAFABQ
TAF
KABQ 171739Z 1718/1818 VRB06KT P6SM VCSH SCT008 BKN035 OVC080
      TEMPO 1718/1720 6SM -RA BR SCT003 BKN025
     FM172000 10010KT P6SM SCT012 SCT030 BKN080
     FM180100 09012KT P6SM VCSH SCT030 BKN060
     FM180700 07010KT P6SM VCSH BKN030 OVC050
     FM181700 14010KT 5SM -RA BR OVC025=

USA.gov is the U.S. government's official web portal to all federal, state and local government web resources and services.